createdAt,value
2018-06-24T00:00:20.654Z,2.7
2018-06-24T00:03:20.741Z,2.6
2018-06-24T00:06:20.694Z,2.8
2018-06-24T00:09:20.589Z,2.5
2018-06-24T00:12:20.519Z,2.5
2018-06-24T00:15:20.781Z,2.4
2018-06-24T00:18:20.538Z,2.3
2018-06-24T00:21:20.502Z,2.3
2018-06-24T00:24:20.444Z,2.8
2018-06-24T00:27:20.590Z,2.7
2018-06-24T00:30:20.826Z,2.4
2018-06-24T00:33:20.804Z,2.5
2018-06-24T00:36:20.843Z,2.5
2018-06-24T00:39:20.503Z,2.7
2018-06-24T00:42:20.538Z,2.4
2018-06-24T00:45:20.514Z,2.3
2018-06-24T00:48:20.563Z,2.4
2018-06-24T00:51:20.685Z,2.7
2018-06-24T00:54:20.594Z,2.4
2018-06-24T00:57:20.512Z,2.4
2018-06-24T01:00:20.509Z,2.3
2018-06-24T01:03:20.617Z,2.5
2018-06-24T01:06:20.434Z,2.3
2018-06-24T01:09:20.575Z,2.3
2018-06-24T01:12:20.612Z,2.3
2018-06-24T01:15:20.528Z,2.2
2018-06-24T01:18:20.491Z,2.2
2018-06-24T01:21:20.431Z,2.2
2018-06-24T01:24:20.659Z,2.1
2018-06-24T01:27:20.503Z,2.1
2018-06-24T01:30:20.716Z,2.1
2018-06-24T01:33:20.589Z,2.2
2018-06-24T01:36:20.685Z,2.2
2018-06-24T01:39:20.479Z,2.1
2018-06-24T01:42:20.479Z,2.2
2018-06-24T01:45:20.567Z,2.2
2018-06-24T01:48:20.632Z,2.2
2018-06-24T01:51:20.497Z,2.2
2018-06-24T01:54:20.816Z,2.6
2018-06-24T01:57:20.531Z,2.4
2018-06-24T02:00:20.452Z,2.3
2018-06-24T02:03:20.643Z,2.2
2018-06-24T02:06:20.749Z,2.3
2018-06-24T02:09:20.574Z,2.2
2018-06-24T02:12:20.462Z,2.3
2018-06-24T02:15:20.608Z,2.2
2018-06-24T02:18:20.748Z,2.3
2018-06-24T02:21:20.678Z,2.3
2018-06-24T02:24:20.490Z,2.5
2018-06-24T02:27:20.583Z,2.4
2018-06-24T02:30:20.767Z,2.3
2018-06-24T02:33:20.630Z,2.4
2018-06-24T02:36:21.268Z,2.3
2018-06-24T02:39:20.509Z,2.4
2018-06-24T02:42:20.788Z,2.5
2018-06-24T02:45:20.801Z,2.5
2018-06-24T02:48:20.487Z,2.4
2018-06-24T02:51:20.620Z,2.3
2018-06-24T02:54:20.573Z,2.5
2018-06-24T02:57:20.782Z,2.4
2018-06-24T03:00:20.501Z,2.4
2018-06-24T03:03:20.565Z,2.3
2018-06-24T03:06:20.537Z,2.3
2018-06-24T03:09:20.621Z,2.3
2018-06-24T03:12:20.608Z,2.3
2018-06-24T03:15:20.642Z,2.3
2018-06-24T03:18:20.475Z,2.4
2018-06-24T03:21:20.557Z,2.3
2018-06-24T03:24:20.431Z,2.3
2018-06-24T03:27:20.616Z,2.3
2018-06-24T03:30:20.506Z,2.3
2018-06-24T03:33:20.506Z,2.3
2018-06-24T03:36:20.724Z,2.4
2018-06-24T03:39:20.462Z,2.4
2018-06-24T03:42:20.439Z,2.4
2018-06-24T03:45:20.616Z,2.4
2018-06-24T03:48:20.593Z,2.4
2018-06-24T03:51:20.761Z,2.3
2018-06-24T03:54:20.511Z,2.3
2018-06-24T03:57:20.677Z,2.3
2018-06-24T04:00:20.757Z,2.3
2018-06-24T04:03:20.512Z,2.3
2018-06-24T04:06:20.533Z,2.2
2018-06-24T04:09:20.504Z,2.2
2018-06-24T04:12:20.575Z,2.3
2018-06-24T04:15:20.425Z,2.4
2018-06-24T04:18:21.016Z,2.5
2018-06-24T04:21:20.473Z,2.6
2018-06-24T04:24:20.478Z,2.4
2018-06-24T04:27:20.466Z,2.4
2018-06-24T04:30:20.489Z,2.4
2018-06-24T04:33:20.452Z,2.3
2018-06-24T04:36:20.745Z,2.3
2018-06-24T04:39:20.705Z,2.3
2018-06-24T04:42:20.511Z,2.3
2018-06-24T04:45:20.759Z,2.3
2018-06-24T04:48:20.467Z,2.2
2018-06-24T04:51:20.681Z,2.3
2018-06-24T04:54:20.431Z,2.3
2018-06-24T04:57:20.489Z,2.4
2018-06-24T05:00:20.553Z,2.3
2018-06-24T05:03:20.548Z,2.3
2018-06-24T05:06:20.983Z,2.3
2018-06-24T05:09:20.636Z,2.3
2018-06-24T05:12:20.778Z,2.3
2018-06-24T05:15:20.639Z,2.3
2018-06-24T05:18:20.425Z,2.3
2018-06-24T05:21:20.608Z,2.3
2018-06-24T05:24:20.344Z,2.3
2018-06-24T05:27:20.609Z,2.3
2018-06-24T05:30:20.442Z,2.4
2018-06-24T05:33:20.452Z,2.2
2018-06-24T05:36:20.541Z,2.3
2018-06-24T05:39:20.533Z,2.3
2018-06-24T05:42:20.533Z,2.3
2018-06-24T05:45:20.416Z,2.2
2018-06-24T05:48:20.556Z,2.2
2018-06-24T05:51:20.513Z,2.3
2018-06-24T05:54:21.113Z,2.2
2018-06-24T05:57:20.342Z,2.2
2018-06-24T06:00:20.548Z,2.3
2018-06-24T06:03:20.540Z,2.2
2018-06-24T06:06:20.472Z,2.1
2018-06-24T06:09:20.462Z,2
2018-06-24T06:12:20.487Z,2.1
2018-06-24T06:15:20.375Z,2.2
2018-06-24T06:18:20.428Z,2.2
2018-06-24T06:21:20.472Z,2.2
2018-06-24T06:24:20.576Z,2.2
2018-06-24T06:27:20.439Z,2.2
2018-06-24T06:30:22.326Z,2.1
2018-06-24T06:33:20.498Z,2.1
2018-06-24T06:36:20.451Z,2.2
2018-06-24T06:39:20.508Z,2.2
2018-06-24T06:42:20.490Z,2.1
2018-06-24T06:45:22.558Z,2.2
2018-06-24T06:48:20.525Z,2.2
2018-06-24T06:51:20.453Z,2.2
2018-06-24T06:54:20.534Z,2.2
2018-06-24T06:57:20.472Z,2.2
2018-06-24T07:00:20.491Z,2.1
2018-06-24T07:03:21.146Z,5.3
2018-06-24T07:06:20.743Z,6.6
2018-06-24T07:09:20.575Z,7.2
2018-06-24T07:12:20.563Z,7.5
2018-06-24T07:15:20.581Z,8.4
2018-06-24T07:18:20.608Z,9.1
2018-06-24T07:21:20.636Z,8.5
2018-06-24T07:24:20.648Z,8.6
2018-06-24T07:27:20.679Z,8.9
2018-06-24T07:30:20.673Z,9.6
2018-06-24T07:33:21.754Z,8.3
2018-06-24T07:36:20.682Z,7.8
2018-06-24T07:39:21.213Z,8.9
2018-06-24T07:42:20.736Z,8.8
2018-06-24T07:45:20.741Z,8.3
2018-06-24T07:48:20.736Z,7.4
2018-06-24T07:51:20.787Z,7.6
2018-06-24T07:54:20.798Z,6.9
2018-06-24T07:57:21.464Z,6.4
2018-06-24T08:00:20.768Z,6.4
2018-06-24T08:03:21.423Z,6.3
2018-06-24T08:06:20.426Z,6.1
2018-06-24T08:09:20.921Z,6.4
2018-06-24T08:12:20.852Z,6.1
2018-06-24T08:15:20.824Z,6.4
2018-06-24T08:18:20.372Z,6.8
2018-06-24T08:21:20.432Z,6
2018-06-24T08:24:20.411Z,6.6
2018-06-24T08:27:20.813Z,6.7
2018-06-24T08:30:20.551Z,7.2
2018-06-24T08:33:20.913Z,6.5
2018-06-24T08:36:20.406Z,6.2
2018-06-24T08:39:20.933Z,5.8
2018-06-24T08:42:20.364Z,5.6
2018-06-24T08:45:20.631Z,6
2018-06-24T08:48:20.562Z,6.2
2018-06-24T08:51:20.565Z,6.8
2018-06-24T08:54:21.253Z,6.2
2018-06-24T08:57:20.600Z,6.1
2018-06-24T09:00:20.438Z,5.7
2018-06-24T09:03:20.631Z,5.1
2018-06-24T09:06:20.487Z,5.7
2018-06-24T09:09:20.526Z,6.2
2018-06-24T09:12:20.495Z,5.6
2018-06-24T09:15:20.389Z,5.6
2018-06-24T09:18:20.622Z,5.8
2018-06-24T09:21:21.232Z,5.6
2018-06-24T09:24:20.426Z,5.6
2018-06-24T09:27:20.581Z,5.9
2018-06-24T09:30:20.468Z,5.7
2018-06-24T09:33:20.502Z,6.2
2018-06-24T09:36:20.553Z,6.3
2018-06-24T09:39:20.561Z,5.8
2018-06-24T09:42:20.694Z,7
2018-06-24T09:45:20.582Z,7.2
2018-06-24T09:48:20.578Z,6.6
2018-06-24T09:51:20.620Z,6.3
2018-06-24T09:54:20.621Z,5.9
2018-06-24T09:57:20.665Z,5.4
2018-06-24T10:00:20.665Z,4.8
2018-06-24T10:03:21.161Z,5.5
2018-06-24T10:06:20.728Z,6.3
2018-06-24T10:09:20.644Z,7
2018-06-24T10:12:20.679Z,6.5
2018-06-24T10:15:20.626Z,7.3
2018-06-24T10:18:20.699Z,7.7
2018-06-24T10:21:20.247Z,7.3
2018-06-24T10:24:20.715Z,7.4
2018-06-24T10:27:20.753Z,6.9
2018-06-24T10:30:20.294Z,6.2
2018-06-24T10:33:20.753Z,7
2018-06-24T10:36:20.725Z,6.1
2018-06-24T10:39:20.335Z,6.7
2018-06-24T10:42:20.384Z,5.9
2018-06-24T10:45:20.790Z,5.6
2018-06-24T10:48:20.417Z,6
2018-06-24T10:51:20.768Z,6.2
2018-06-24T10:54:20.484Z,6.3
2018-06-24T10:57:20.469Z,6.1
2018-06-24T11:00:20.330Z,5.1
2018-06-24T11:03:20.695Z,5.3
2018-06-24T11:06:20.460Z,5.6
2018-06-24T11:09:20.428Z,6
2018-06-24T11:12:20.533Z,6
2018-06-24T11:15:20.536Z,5.5
2018-06-24T11:18:20.490Z,4.7
2018-06-24T11:21:20.319Z,4.8
2018-06-24T11:24:20.496Z,7.7
2018-06-24T11:27:20.393Z,6.1
2018-06-24T11:30:20.476Z,7.4
2018-06-24T11:33:20.484Z,6.1
2018-06-24T11:36:20.547Z,6.6
2018-06-24T11:39:20.526Z,6.5
2018-06-24T11:42:20.504Z,6
2018-06-24T11:45:20.527Z,5.8
2018-06-24T11:48:20.364Z,5.5
2018-06-24T11:51:20.788Z,5.4
2018-06-24T11:54:20.578Z,7.8
2018-06-24T11:57:20.443Z,5.8
2018-06-24T12:00:20.442Z,5.3
2018-06-24T12:03:20.563Z,5.2
2018-06-24T12:06:20.444Z,5
2018-06-24T12:09:20.495Z,4.5
2018-06-24T12:12:20.443Z,4.4
2018-06-24T12:15:20.699Z,5.2
2018-06-24T12:18:21.721Z,8.8
2018-06-24T12:21:20.542Z,8.2
2018-06-24T12:24:20.420Z,7.6
2018-06-24T12:27:20.344Z,11.7
2018-06-24T12:30:20.320Z,11.5
2018-06-24T12:33:20.355Z,10.8
2018-06-24T12:36:20.474Z,10.5
2018-06-24T12:39:20.291Z,8.8
2018-06-24T12:42:20.619Z,9.5
2018-06-24T12:45:20.520Z,10.6
2018-06-24T12:48:20.340Z,10.7
2018-06-24T12:51:20.496Z,8.7
2018-06-24T12:54:20.570Z,8.4
2018-06-24T12:57:20.652Z,7.7
2018-06-24T13:00:29.311Z,8.3
2018-06-24T13:03:20.385Z,9
2018-06-24T13:06:20.447Z,12.7
2018-06-24T13:09:20.264Z,14.4
2018-06-24T13:12:20.636Z,11
2018-06-24T13:15:20.419Z,11.4
2018-06-24T13:18:20.339Z,9.4
2018-06-24T13:21:21.113Z,9.3
2018-06-24T13:24:20.305Z,8.9
2018-06-24T13:27:20.350Z,8
2018-06-24T13:30:20.502Z,6.6
2018-06-24T13:33:20.323Z,6.8
2018-06-24T13:36:20.278Z,7.1
2018-06-24T13:39:20.549Z,6.7
2018-06-24T13:42:21.096Z,7.3
2018-06-24T13:45:20.334Z,5.9
2018-06-24T13:48:20.366Z,5.5
2018-06-24T13:51:20.438Z,5.6
2018-06-24T13:54:20.222Z,5
2018-06-24T13:57:20.457Z,6
2018-06-24T14:00:20.200Z,5.3
2018-06-24T14:03:44.865Z,5.1
2018-06-24T14:06:20.305Z,5.6
2018-06-24T14:09:20.230Z,5.5
2018-06-24T14:12:20.559Z,4.6
2018-06-24T14:15:20.330Z,4.5
2018-06-24T14:18:20.576Z,6.3
2018-06-24T14:21:20.461Z,5.6
2018-06-24T14:24:20.200Z,5.5
2018-06-24T14:27:20.399Z,5
2018-06-24T14:30:20.473Z,5.4
2018-06-24T14:33:20.499Z,4.7
2018-06-24T14:36:20.383Z,4.1
2018-06-24T14:39:20.277Z,4.4
2018-06-24T14:42:20.401Z,3.8
2018-06-24T14:45:20.271Z,3.4
2018-06-24T14:48:20.458Z,3.6
2018-06-24T14:51:20.288Z,3.7
2018-06-24T14:54:20.410Z,4.2
2018-06-24T14:57:20.345Z,5.2
2018-06-24T15:00:20.219Z,4.2
2018-06-24T15:03:20.481Z,3.7
2018-06-24T15:06:20.255Z,3.5
2018-06-24T15:09:20.638Z,4.3
2018-06-24T15:12:20.415Z,4.4
2018-06-24T15:15:20.601Z,4
2018-06-24T15:18:20.534Z,3.9
2018-06-24T15:21:20.365Z,4.2
2018-06-24T15:24:20.390Z,3.4
2018-06-24T15:27:20.235Z,3
2018-06-24T15:30:20.506Z,3.6
2018-06-24T15:33:20.500Z,3.3
2018-06-24T15:36:20.223Z,3.5
2018-06-24T15:39:20.358Z,3.9
2018-06-24T15:42:20.244Z,4
2018-06-24T15:45:20.191Z,4.2
2018-06-24T15:48:20.483Z,4.3
2018-06-24T15:51:20.889Z,4.2
2018-06-24T15:54:20.364Z,3.9
2018-06-24T15:57:20.504Z,3.3
2018-06-24T16:00:20.231Z,3.4
2018-06-24T16:03:20.399Z,5
2018-06-24T16:06:20.524Z,4.6
2018-06-24T16:09:20.192Z,4
2018-06-24T16:12:20.506Z,3.9
2018-06-24T16:15:20.335Z,4.5
2018-06-24T16:18:20.393Z,3.9
2018-06-24T16:21:21.194Z,3.2
2018-06-24T16:24:20.419Z,3.1
2018-06-24T16:27:20.344Z,5
2018-06-24T16:30:20.544Z,5
2018-06-24T16:33:20.375Z,4.2
2018-06-24T16:36:20.419Z,3.8
2018-06-24T16:39:20.441Z,4
2018-06-24T16:42:20.844Z,4.1
2018-06-24T16:45:20.247Z,4.4
2018-06-24T16:48:20.250Z,4.5
2018-06-24T16:51:20.527Z,5
2018-06-24T16:54:20.674Z,4.3
2018-06-24T16:57:20.458Z,4.7
2018-06-24T17:00:20.278Z,4.6
2018-06-24T17:03:20.463Z,3.8
2018-06-24T17:06:20.191Z,4.3
2018-06-24T17:09:20.189Z,4.6
2018-06-24T17:12:20.338Z,4.2
2018-06-24T17:15:20.147Z,4.5
2018-06-24T17:18:20.334Z,4
2018-06-24T17:21:20.274Z,4.3
2018-06-24T17:24:20.440Z,4.4
2018-06-24T17:27:20.338Z,5
2018-06-24T17:30:20.249Z,4.6
2018-06-24T17:33:20.262Z,3.6
2018-06-24T17:36:20.373Z,3.4
2018-06-24T17:39:20.439Z,4
2018-06-24T17:42:20.346Z,4.1
2018-06-24T17:45:20.281Z,3.9
2018-06-24T17:48:20.401Z,3.8
2018-06-24T17:51:20.316Z,4.2
2018-06-24T17:54:20.496Z,3.5
2018-06-24T17:57:20.209Z,3.5
2018-06-24T18:00:20.406Z,3
2018-06-24T18:03:20.315Z,3.3
2018-06-24T18:06:20.468Z,6.5
2018-06-24T18:09:20.421Z,4.9
2018-06-24T18:12:20.484Z,6
2018-06-24T18:15:21.025Z,5
2018-06-24T18:18:20.378Z,5.3
2018-06-24T18:21:20.349Z,6.6
2018-06-24T18:24:20.201Z,5
2018-06-24T18:27:20.234Z,4.7
2018-06-24T18:30:20.415Z,4.3
2018-06-24T18:33:20.411Z,4.7
2018-06-24T18:36:20.462Z,4.2
2018-06-24T18:39:20.221Z,3.7
2018-06-24T18:42:20.317Z,4.2
2018-06-24T18:45:20.914Z,5
2018-06-24T18:48:20.412Z,4.1
2018-06-24T18:51:20.258Z,3.5
2018-06-24T18:54:20.506Z,3.6
2018-06-24T18:57:20.265Z,5.5
2018-06-24T19:00:20.543Z,5.1
2018-06-24T19:03:20.323Z,4.9
2018-06-24T19:06:20.437Z,4.7
2018-06-24T19:09:20.336Z,5.7
2018-06-24T19:12:20.373Z,5.9
2018-06-24T19:15:20.449Z,7
2018-06-24T19:18:20.238Z,6.3
2018-06-24T19:21:20.519Z,5.9
2018-06-24T19:24:20.214Z,6.8
2018-06-24T19:27:20.350Z,6.7
2018-06-24T19:30:20.482Z,6.7
2018-06-24T19:33:20.319Z,6.1
2018-06-24T19:36:20.242Z,5.7
2018-06-24T19:39:21.298Z,6.3
2018-06-24T19:42:20.168Z,5.2
2018-06-24T19:45:20.411Z,5.1
2018-06-24T19:48:20.333Z,5.2
2018-06-24T19:51:20.327Z,6.2
2018-06-24T19:54:20.275Z,6.3
2018-06-24T19:57:20.239Z,5.6
2018-06-24T20:00:20.429Z,5.8
2018-06-24T20:03:20.433Z,5.7
2018-06-24T20:06:20.348Z,6.2
2018-06-24T20:09:20.861Z,5.3
2018-06-24T20:12:20.392Z,4.8
2018-06-24T20:15:20.389Z,5.1
2018-06-24T20:18:20.333Z,5
2018-06-24T20:21:20.488Z,5.6
2018-06-24T20:24:20.464Z,5.4
2018-06-24T20:27:20.827Z,5.9
2018-06-24T20:30:20.484Z,5.3
2018-06-24T20:33:20.491Z,5.7
2018-06-24T20:36:20.512Z,6.6
2018-06-24T20:39:20.443Z,5.5
2018-06-24T20:42:20.424Z,4.9
2018-06-24T20:45:20.554Z,4.8
2018-06-24T20:48:20.495Z,5.3
2018-06-24T20:51:20.532Z,4.2
2018-06-24T20:54:20.585Z,4.1
2018-06-24T20:57:20.506Z,3.8
2018-06-24T21:00:20.525Z,3.4
2018-06-24T21:03:20.643Z,3.7
2018-06-24T21:06:20.640Z,3.7
2018-06-24T21:09:20.349Z,4.5
2018-06-24T21:12:20.267Z,3.8
2018-06-24T21:15:20.238Z,3.5
2018-06-24T21:18:20.301Z,3.5
2018-06-24T21:21:20.433Z,3.8
2018-06-24T21:24:20.721Z,3.9
2018-06-24T21:27:20.290Z,3.6
2018-06-24T21:30:20.214Z,3.7
2018-06-24T21:33:20.315Z,3.6
2018-06-24T21:36:20.495Z,3.2
2018-06-24T21:39:20.272Z,3
2018-06-24T21:42:20.163Z,3.2
2018-06-24T21:45:20.269Z,3.1
2018-06-24T21:48:20.380Z,3.4
2018-06-24T21:51:20.478Z,3.1
2018-06-24T21:54:20.277Z,3
2018-06-24T21:57:20.169Z,3.3
2018-06-24T22:00:20.258Z,3.1
2018-06-24T22:03:20.381Z,3.1
2018-06-24T22:06:20.190Z,3.3
2018-06-24T22:09:20.215Z,3.3
2018-06-24T22:12:20.355Z,3.1
2018-06-24T22:15:20.192Z,2.9
2018-06-24T22:18:20.260Z,3.2
2018-06-24T22:21:20.220Z,3.4
2018-06-24T22:24:20.150Z,3.7
2018-06-24T22:27:20.219Z,3.3
2018-06-24T22:30:20.240Z,3.4
2018-06-24T22:33:20.163Z,3.2
2018-06-24T22:36:20.370Z,3
2018-06-24T22:39:20.326Z,3.4
2018-06-24T22:42:20.355Z,3.1
2018-06-24T22:45:20.115Z,3.1
2018-06-24T22:48:20.294Z,3.2
2018-06-24T22:51:20.265Z,3.1
2018-06-24T22:54:20.150Z,3
2018-06-24T22:57:20.334Z,2.9
2018-06-24T23:00:20.242Z,3.3
2018-06-24T23:03:20.363Z,3.1
2018-06-24T23:06:20.300Z,3
2018-06-24T23:09:20.287Z,2.8
2018-06-24T23:12:20.095Z,3.5
2018-06-24T23:15:20.121Z,3.1
2018-06-24T23:18:20.104Z,2.9
2018-06-24T23:21:20.148Z,2.8
2018-06-24T23:24:20.374Z,2.8
2018-06-24T23:27:20.190Z,2.8
2018-06-24T23:30:20.378Z,2.8
2018-06-24T23:33:20.228Z,2.7
2018-06-24T23:36:20.227Z,2.8
2018-06-24T23:39:20.202Z,3.3
2018-06-24T23:42:20.294Z,3
2018-06-24T23:45:20.292Z,2.8
2018-06-24T23:48:20.184Z,2.8
2018-06-24T23:51:20.388Z,2.7
2018-06-24T23:54:20.387Z,2.7
2018-06-24T23:57:20.259Z,2.6
